Lima, Peru
Current Conditions -  °F | °C
As of 9:00 PM on Monday 24 Nov 2014 (Local Time) from SPIM Reporting Station
Overcast Overcast  
Wind Chill: 68°   Ceiling: 2800
Heat Index: 68°   Visibility: 6mi
Dew Point: 61°   Wind: 10mph
Humidity: 78%   Direction: 160°SSE
Pressure: 29.94"   Gusts: NA
Location:  12.07°S, 77.05°W
Report Text: SPIM 250200Z 16009KT 9999 OVC028 20/16 Q1014 NOSIG RMK PP000
Loading
Personal Weather Stations






























Interactive Weather Map New forecast layout! Learn more

10-Day Weather Forecast

Advertisements
Track Severe Weather on mobile